Albuquerque, NM

4:09 AM MST on December 18, 2014 (GMT -0700)
UNM Area West | Change Station
CLOSE
Current Station
Personal Weather Station
Location: Albuquerque, NM
Elevation: 5133 ft
Nearby Weather Stations

Elev 5133 ft 35.09 °N, 106.63 °W | Updated 9 minutes ago

Partly Cloudy
Partly Cloudy
32.0 °F
Feels Like 32 °F
N
0.0
Wind Variable Wind from ESE
Gusts 3.0 mph

Today
High -- | Low -- °F
--% Chance of Precip.
Yesterday
High -- | Low -- °F
Precip. -- in
7:09 AM 4:57 PM
Waning Crescent, 15% visible
Pressure 30.14 in
Visibility 10.0 miles
Clouds Few 6000 ft
Windchill 32 °F
Dew Point 29 °F
Humidity 89%
Rainfall 0.00 in
Snow Depth Not available.
UV 0 out of 12
Pollen 3.30 out of 12
Air Quality Not available.
Flu Activity Not available.
METAR KABQ 181052Z 11005KT 10SM FEW060 M01/M02 A3013 RMK AO2 SLP204 T10111022

More Conditions Fewer Conditions

Pressure 30.14 in
Visibility 10.0 miles
Clouds Few 6000 ft
Windchill 32 °F
Dew Point 29 °F
Humidity 89%
Rainfall 0.00 in
Snow Depth Not available.
UV 0 out of 12
Pollen 3.30 out of 12
Air Quality Not available.
Flu Activity Not available.
METAR KABQ 181052Z 11005KT 10SM FEW060 M01/M02 A3013 RMK AO2 SLP204 T10111022

More Conditions Fewer Conditions

Nowcast | as of 2:00 am MST on December 18, 2014

Patchy fog reducing visibilities down to 1 mile with localized values down to a half a mile will be observed across northwest and north central portions of New Mexico through the early morning hours. The main focus will be found near the Continental Divide as well as within the northwest plateau and upper Rio Grande Valley. The Moreno Valley found within the Sangre de Cristos will see a mixture of reduced visibilities and light snowfall. Accumulations will be less than a half an inch.

×

10-Day Weather Forecast

Almanac

Astronomy

Dec. 18, 2014 Rise Set
Actual Time
Civil Twilight
Nautical Twilight
Astronomical Twilight
Moon
Length of Visible Light
Length of Day
Tomorrow will be .
, % of the Moon is Illuminated

Today's Extremes

State Highs State Lows

Community

WunderPhotos

Upload Photos

1,778,917 photos uploaded!

WunderBlogs® & News

Nearby

Air Quality

  Air Quality AQ Index Pollutant
Not available.

Snow Depth

Station Depth Elevation

Earthquake Activity

City Distance Mag. Time & Date
Minimum magnitude displayed is 2.5.

Coastal Water Temperatures

Place Temperature

Nearby Weather Stations